createdAt,value
2023-08-14T00:01:08.244Z,10.82
2023-08-14T00:04:21.364Z,11.48
2023-08-14T00:07:33.768Z,9.25
2023-08-14T00:10:46.611Z,10.40
2023-08-14T00:13:59.016Z,9.65
2023-08-14T00:17:11.736Z,11.70
2023-08-14T00:20:24.124Z,11.80
2023-08-14T00:23:36.899Z,10.48
2023-08-14T00:26:49.308Z,9.90
2023-08-14T00:30:02.443Z,12.73
2023-08-14T00:33:14.847Z,10.52
2023-08-14T00:36:27.592Z,13.77
2023-08-14T00:39:39.974Z,12.40
2023-08-14T00:42:52.727Z,11.30
2023-08-14T00:46:05.225Z,11.25
2023-08-14T00:49:17.933Z,11.65
2023-08-14T00:52:33.041Z,9.80
2023-08-14T00:55:46.185Z,14.95
2023-08-14T00:58:58.598Z,10.77
2023-08-14T01:02:11.297Z,11.85
2023-08-14T01:05:24.791Z,9.85
2023-08-14T01:08:37.509Z,11.35
2023-08-14T01:12:08.376Z,10.60
2023-08-14T01:15:37.874Z,11.52
2023-08-14T01:18:50.293Z,10.60
2023-08-14T01:22:44.585Z,12.23
2023-08-14T01:25:57.081Z,11.05
2023-08-14T01:29:09.834Z,12.60
2023-08-14T01:32:22.189Z,12.13
2023-08-14T01:35:45.262Z,13.02
2023-08-14T01:39:08.720Z,12.80
2023-08-14T01:42:32.243Z,12.57
2023-08-14T01:45:44.615Z,13.23
2023-08-14T01:48:57.473Z,13.70
2023-08-14T01:52:09.886Z,11.80
2023-08-14T01:55:24.474Z,11.95
2023-08-14T01:58:36.903Z,10.77
2023-08-14T02:01:49.620Z,12.02
2023-08-14T02:05:02.335Z,12.20
2023-08-14T02:08:15.506Z,11.23
2023-08-14T02:11:28.207Z,14.38
2023-08-14T02:14:40.657Z,11.25
2023-08-14T02:17:53.359Z,11.85
2023-08-14T02:21:05.772Z,11.50
2023-08-14T02:24:18.467Z,12.85
2023-08-14T02:27:30.857Z,12.05
2023-08-14T02:30:44.888Z,12.37
2023-08-14T02:34:01.810Z,13.65
2023-08-14T02:37:15.121Z,10.70
2023-08-14T02:40:27.556Z,11.90
2023-08-14T02:43:40.629Z,13.15
2023-08-14T02:46:54.845Z,14.10
2023-08-14T02:50:07.820Z,14.68
2023-08-14T02:53:20.304Z,14.55
2023-08-14T02:56:33.025Z,15.13
2023-08-14T02:59:45.402Z,14.48
2023-08-14T03:02:58.159Z,13.62
2023-08-14T03:06:10.607Z,14.18
2023-08-14T03:09:23.286Z,15.43
2023-08-14T03:12:35.747Z,14.55
2023-08-14T03:15:48.444Z,12.95
2023-08-14T03:19:00.900Z,15.10
2023-08-14T03:22:13.878Z,11.85
2023-08-14T03:25:27.194Z,15.68
2023-08-14T03:28:40.007Z,14.38
2023-08-14T03:31:52.449Z,15.55
2023-08-14T03:35:05.667Z,13.27
2023-08-14T03:38:18.584Z,14.75
2023-08-14T03:41:31.262Z,13.40
2023-08-14T03:44:43.894Z,14.77
2023-08-14T03:47:56.626Z,14.32
2023-08-14T03:51:09.485Z,17.60
2023-08-14T03:54:23.294Z,14.93
2023-08-14T03:57:38.627Z,14.45
2023-08-14T04:00:52.295Z,12.95
2023-08-14T04:04:05.117Z,13.38
2023-08-14T04:07:17.488Z,14.75
2023-08-14T04:10:30.141Z,12.63
2023-08-14T04:13:42.557Z,13.40
2023-08-14T04:16:57.784Z,12.85
2023-08-14T04:20:10.852Z,14.43
2023-08-14T04:23:24.224Z,12.52
2023-08-14T04:26:38.042Z,13.27
2023-08-14T04:29:50.840Z,14.38
2023-08-14T04:33:03.362Z,13.80
2023-08-14T04:36:16.774Z,14.00
2023-08-14T04:39:29.252Z,15.13
2023-08-14T04:42:42.161Z,11.52
2023-08-14T04:45:54.646Z,12.85
2023-08-14T04:49:07.345Z,12.55
2023-08-14T04:52:23.273Z,14.48
2023-08-14T04:55:36.838Z,18.25
2023-08-14T04:58:49.231Z,15.15
2023-08-14T05:02:01.972Z,14.27
2023-08-14T05:05:15.389Z,14.85
2023-08-14T05:08:29.039Z,13.32
2023-08-14T05:11:41.396Z,15.00
2023-08-14T05:14:54.913Z,17.45
2023-08-14T05:18:07.697Z,15.13
2023-08-14T05:21:20.462Z,15.77
2023-08-14T05:24:32.838Z,11.85
2023-08-14T05:27:45.796Z,15.13
2023-08-14T05:30:58.995Z,13.62
2023-08-14T05:34:11.675Z,13.85
2023-08-14T05:37:24.078Z,17.42
2023-08-14T05:40:36.772Z,10.93
2023-08-14T05:43:50.047Z,13.45
2023-08-14T05:47:02.801Z,13.52
2023-08-14T05:50:15.214Z,17.95
2023-08-14T05:53:27.985Z,12.95
2023-08-14T05:56:40.398Z,12.93
2023-08-14T05:59:53.141Z,10.73
2023-08-14T06:03:05.864Z,11.85
2023-08-14T06:06:18.552Z,12.23
2023-08-14T06:09:30.969Z,15.73
2023-08-14T06:12:43.856Z,13.30
2023-08-14T06:15:56.272Z,10.52
2023-08-14T06:19:10.111Z,10.98
2023-08-14T06:22:22.588Z,12.32
2023-08-14T06:25:35.315Z,9.15
2023-08-14T06:28:47.783Z,10.43
2023-08-14T06:32:01.914Z,11.15
2023-08-14T06:35:14.301Z,11.07
2023-08-14T06:38:26.998Z,10.77
2023-08-14T06:41:39.428Z,10.13
2023-08-14T06:44:52.253Z,9.38
2023-08-14T06:48:05.116Z,9.40
2023-08-14T06:51:17.976Z,11.77
2023-08-14T06:54:30.375Z,9.25
2023-08-14T06:57:43.011Z,12.85
2023-08-14T07:00:56.581Z,11.45
2023-08-14T07:04:09.316Z,10.75
2023-08-14T07:07:21.689Z,14.63
2023-08-14T07:10:34.307Z,10.13
2023-08-14T07:13:49.019Z,8.65
2023-08-14T07:17:01.805Z,10.27
2023-08-14T07:20:15.489Z,9.93
2023-08-14T07:23:28.154Z,10.73
2023-08-14T07:26:41.921Z,8.52
2023-08-14T07:29:54.776Z,13.27
2023-08-14T07:33:11.910Z,10.85
2023-08-14T07:36:24.557Z,16.33
2023-08-14T07:39:36.986Z,13.48
2023-08-14T07:42:49.648Z,11.25
2023-08-14T07:46:02.036Z,10.43
2023-08-14T07:49:14.712Z,9.52
2023-08-14T07:52:29.022Z,9.32
2023-08-14T07:55:42.992Z,11.50
2023-08-14T07:58:55.452Z,10.27
2023-08-14T08:02:08.124Z,16.98
2023-08-14T08:05:21.134Z,7.18
2023-08-14T08:08:33.621Z,11.00
2023-08-14T08:11:46.271Z,16.37
2023-08-14T08:14:58.661Z,7.70
2023-08-14T08:18:11.456Z,8.85
2023-08-14T08:21:24.225Z,9.48
2023-08-14T08:24:37.083Z,7.82
2023-08-14T08:27:49.540Z,8.35
2023-08-14T08:31:03.488Z,10.38
2023-08-14T08:34:15.854Z,7.22
2023-08-14T08:37:28.969Z,8.85
2023-08-14T08:40:42.989Z,7.65
2023-08-14T08:44:01.534Z,8.82
2023-08-14T08:47:16.888Z,10.05
2023-08-14T08:50:29.644Z,11.43
2023-08-14T08:53:42.014Z,11.40
2023-08-14T08:56:56.814Z,7.43
2023-08-14T09:00:10.183Z,9.70
2023-08-14T09:03:23.422Z,8.05
2023-08-14T09:06:36.051Z,8.68
2023-08-14T09:09:48.815Z,7.95
2023-08-14T09:13:02.162Z,7.28
2023-08-14T09:16:16.057Z,10.88
2023-08-14T09:19:28.553Z,10.63
2023-08-14T09:22:41.262Z,6.87
2023-08-14T09:25:53.724Z,7.68
2023-08-14T09:29:06.422Z,7.43
2023-08-14T09:32:23.894Z,6.43
2023-08-14T09:35:37.038Z,7.70
2023-08-14T09:38:52.600Z,7.82
2023-08-14T09:42:05.365Z,7.75
2023-08-14T09:45:19.022Z,8.27
2023-08-14T09:48:45.909Z,6.93
2023-08-14T09:51:58.448Z,6.55
2023-08-14T09:55:12.215Z,6.72
2023-08-14T09:58:24.587Z,7.85
2023-08-14T10:01:37.209Z,8.38
2023-08-14T10:04:50.138Z,7.78
2023-08-14T10:08:02.530Z,7.65
2023-08-14T10:11:19.999Z,7.87
2023-08-14T10:14:32.666Z,7.60
2023-08-14T10:17:52.749Z,10.90
2023-08-14T10:21:05.723Z,5.15
2023-08-14T10:24:18.376Z,7.95
2023-08-14T10:27:31.313Z,6.15
2023-08-14T10:30:44.067Z,8.00
2023-08-14T10:33:59.704Z,6.53
2023-08-14T10:37:26.814Z,6.37
2023-08-14T10:40:39.257Z,10.00
2023-08-14T10:43:51.975Z,7.32
2023-08-14T10:47:08.815Z,7.60
2023-08-14T10:50:25.369Z,11.25
2023-08-14T10:56:50.748Z,6.87
2023-08-14T11:00:03.406Z,7.65
2023-08-14T11:03:16.108Z,6.05
2023-08-14T11:06:29.533Z,6.55
2023-08-14T11:09:42.210Z,6.30
2023-08-14T11:12:55.071Z,8.90
2023-08-14T11:16:07.865Z,5.57
2023-08-14T11:19:20.390Z,6.78
2023-08-14T11:22:33.030Z,7.55
2023-08-14T11:25:45.446Z,8.63
2023-08-14T11:28:58.358Z,6.28
2023-08-14T11:32:10.829Z,7.37
2023-08-14T11:35:26.363Z,9.00
2023-08-14T11:38:38.785Z,10.00
2023-08-14T11:41:51.577Z,6.22
2023-08-14T11:45:05.083Z,6.65
2023-08-14T11:48:18.399Z,10.23
2023-08-14T11:51:30.877Z,8.65
2023-08-14T11:54:46.003Z,6.80
2023-08-14T11:58:00.670Z,9.73
2023-08-14T12:01:13.407Z,8.07
2023-08-14T12:04:26.118Z,8.43
2023-08-14T12:07:41.985Z,6.37
2023-08-14T12:14:07.322Z,6.72
2023-08-14T12:17:21.111Z,6.93
2023-08-14T12:20:35.231Z,6.15
2023-08-14T12:23:49.790Z,6.30
2023-08-14T12:27:02.132Z,5.78
2023-08-14T12:30:15.267Z,5.70
2023-08-14T12:33:27.667Z,7.35
2023-08-14T12:36:40.348Z,7.43
2023-08-14T12:39:54.001Z,8.10
2023-08-14T12:43:06.935Z,5.70
2023-08-14T12:46:19.396Z,7.97
2023-08-14T12:49:37.791Z,6.07
2023-08-14T12:52:50.545Z,8.93
2023-08-14T12:56:04.452Z,7.43
2023-08-14T12:59:23.728Z,7.15
2023-08-14T13:02:37.378Z,9.10
2023-08-14T13:05:49.770Z,7.75
2023-08-14T13:09:02.495Z,6.90
2023-08-14T13:12:14.893Z,7.47
2023-08-14T13:15:28.487Z,9.60
2023-08-14T13:18:40.845Z,5.97
2023-08-14T13:21:53.497Z,5.80
2023-08-14T13:25:06.172Z,6.80
2023-08-14T13:28:18.837Z,6.57
2023-08-14T13:31:31.326Z,7.30
2023-08-14T13:34:43.964Z,8.23
2023-08-14T13:37:56.440Z,6.62
2023-08-14T13:41:10.952Z,4.95
2023-08-14T13:44:23.442Z,5.93
2023-08-14T13:47:43.925Z,7.07
2023-08-14T13:51:04.747Z,6.62
2023-08-14T13:54:17.550Z,6.62
2023-08-14T13:57:30.550Z,7.25
2023-08-14T14:00:43.206Z,5.87
2023-08-14T14:03:55.891Z,5.50
2023-08-14T14:07:08.230Z,5.60
2023-08-14T14:10:20.980Z,7.60
2023-08-14T14:13:33.729Z,5.75
2023-08-14T14:16:57.369Z,6.68
2023-08-14T14:20:10.829Z,6.40
2023-08-14T14:23:23.482Z,6.15
2023-08-14T14:26:35.830Z,7.78
2023-08-14T14:29:48.521Z,5.55
2023-08-14T14:33:02.130Z,9.38
2023-08-14T14:36:14.860Z,5.55
2023-08-14T14:39:27.310Z,5.22
2023-08-14T14:42:39.976Z,4.97
2023-08-14T14:45:52.336Z,6.28
2023-08-14T14:49:05.148Z,6.43
2023-08-14T14:52:17.513Z,6.30
2023-08-14T14:55:31.354Z,5.97
2023-08-14T14:58:43.812Z,7.45
2023-08-14T15:01:56.494Z,6.85
2023-08-14T15:05:21.822Z,4.53
2023-08-14T15:08:40.625Z,5.05
2023-08-14T15:11:52.982Z,5.82
2023-08-14T15:15:05.891Z,6.20
2023-08-14T15:18:18.260Z,6.65
2023-08-14T15:21:30.906Z,5.25
2023-08-14T15:24:43.340Z,5.18
2023-08-14T15:27:55.996Z,5.78
2023-08-14T15:31:08.486Z,6.93
2023-08-14T15:34:21.192Z,7.05
2023-08-14T15:37:33.602Z,4.80
2023-08-14T15:40:47.189Z,7.90
2023-08-14T15:43:59.690Z,6.32
2023-08-14T15:47:12.529Z,5.22
2023-08-14T15:50:24.944Z,8.65
2023-08-14T15:53:37.654Z,6.60
2023-08-14T15:56:50.052Z,4.80
2023-08-14T16:00:07.337Z,5.53
2023-08-14T16:03:19.598Z,6.12
2023-08-14T16:06:32.274Z,5.15
2023-08-14T16:09:45.389Z,5.05
2023-08-14T16:12:58.030Z,6.32
2023-08-14T16:16:10.540Z,4.80
2023-08-14T16:19:23.229Z,8.13
2023-08-14T16:22:35.640Z,5.62
2023-08-14T16:25:48.278Z,5.72
2023-08-14T16:29:00.646Z,7.18
2023-08-14T16:32:13.330Z,7.95
2023-08-14T16:35:25.976Z,5.70
2023-08-14T16:38:38.634Z,5.65
2023-08-14T16:41:51.032Z,5.47
2023-08-14T16:45:04.388Z,7.28
2023-08-14T16:48:19.568Z,6.40
2023-08-14T16:51:32.492Z,4.72
2023-08-14T16:54:44.905Z,8.07
2023-08-14T16:58:00.398Z,7.18
2023-08-14T17:01:12.836Z,8.15
2023-08-14T17:04:25.685Z,5.87
2023-08-14T17:07:38.161Z,8.05
2023-08-14T17:10:51.809Z,4.85
2023-08-14T17:14:04.808Z,8.23
2023-08-14T17:17:18.038Z,5.43
2023-08-14T17:20:30.617Z,8.93
2023-08-14T17:23:43.390Z,8.07
2023-08-14T17:26:56.916Z,5.50
2023-08-14T17:30:11.105Z,7.75
2023-08-14T17:33:23.778Z,5.53
2023-08-14T17:36:36.955Z,7.85
2023-08-14T17:39:49.383Z,7.93
2023-08-14T17:43:02.069Z,9.75
2023-08-14T17:46:14.741Z,5.70
2023-08-14T17:49:27.464Z,6.18
2023-08-14T17:52:39.869Z,8.10
2023-08-14T17:55:52.555Z,7.62
2023-08-14T17:59:04.952Z,6.03
2023-08-14T18:02:17.614Z,6.43
2023-08-14T18:05:30.253Z,7.45
2023-08-14T18:08:42.850Z,7.70
2023-08-14T18:11:55.574Z,12.40
2023-08-14T18:15:08.882Z,14.18
2023-08-14T18:18:21.600Z,21.45
2023-08-14T18:21:36.734Z,19.10
2023-08-14T18:24:49.663Z,22.13
2023-08-14T18:28:02.080Z,21.48
2023-08-14T18:31:14.774Z,24.95
2023-08-14T18:34:27.176Z,26.85
2023-08-14T18:37:40.042Z,54.22
2023-08-14T18:40:52.443Z,50.03
2023-08-14T18:44:05.702Z,31.05
2023-08-14T18:47:18.301Z,25.33
2023-08-14T18:50:31.300Z,17.77
2023-08-14T18:53:44.219Z,14.70
2023-08-14T18:56:56.864Z,16.87
2023-08-14T19:00:11.130Z,12.57
2023-08-14T19:03:23.774Z,13.10
2023-08-14T19:06:36.153Z,13.52
2023-08-14T19:09:48.917Z,12.23
2023-08-14T19:13:01.418Z,10.98
2023-08-14T19:16:14.134Z,17.00
2023-08-14T19:19:26.615Z,9.80
2023-08-14T19:22:39.323Z,13.40
2023-08-14T19:25:52.232Z,11.02
2023-08-14T19:29:04.972Z,11.68
2023-08-14T19:32:17.336Z,9.25
2023-08-14T19:35:29.980Z,9.90
2023-08-14T19:38:42.328Z,8.95
2023-08-14T19:41:55.008Z,10.52
2023-08-14T19:45:08.917Z,10.27
2023-08-14T19:48:21.605Z,9.25
2023-08-14T19:51:34.280Z,11.60
2023-08-14T19:54:46.998Z,9.90
2023-08-14T19:57:59.371Z,9.20
2023-08-14T20:01:12.290Z,8.82
2023-08-14T20:04:25.161Z,7.87
2023-08-14T20:07:37.534Z,10.68
2023-08-14T20:10:50.277Z,9.05
2023-08-14T20:14:02.622Z,10.18
2023-08-14T20:17:15.451Z,7.93
2023-08-14T20:20:28.353Z,11.30
2023-08-14T20:23:41.144Z,8.90
2023-08-14T20:26:53.486Z,10.77
2023-08-14T20:30:06.577Z,12.30
2023-08-14T20:33:19.032Z,10.07
2023-08-14T20:36:31.751Z,10.48
2023-08-14T20:39:45.840Z,12.27
2023-08-14T20:42:58.575Z,11.48
2023-08-14T20:46:11.135Z,8.65
2023-08-14T20:49:23.872Z,8.25
2023-08-14T20:52:36.226Z,11.02
2023-08-14T20:55:49.000Z,10.50
2023-08-14T20:59:01.456Z,7.15
2023-08-14T21:02:15.164Z,8.90
2023-08-14T21:05:27.550Z,10.15
2023-08-14T21:08:40.221Z,8.45
2023-08-14T21:11:53.674Z,8.63
2023-08-14T21:15:06.738Z,12.10
2023-08-14T21:18:19.344Z,9.35
2023-08-14T21:21:32.028Z,9.98
2023-08-14T21:24:44.455Z,11.12
2023-08-14T21:27:57.451Z,8.85
2023-08-14T21:31:09.856Z,10.10
2023-08-14T21:34:22.611Z,10.23
2023-08-14T21:37:34.976Z,16.40
2023-08-14T21:40:47.709Z,11.27
2023-08-14T21:44:00.079Z,10.70
2023-08-14T21:47:12.713Z,10.50
2023-08-14T21:50:25.205Z,11.77
2023-08-14T21:53:37.990Z,10.95
2023-08-14T21:56:51.594Z,8.60
2023-08-14T22:00:05.653Z,11.05
2023-08-14T22:03:17.930Z,8.77
2023-08-14T22:06:30.645Z,10.73
2023-08-14T22:09:43.049Z,10.70
2023-08-14T22:12:55.743Z,9.43
2023-08-14T22:16:08.136Z,10.45
2023-08-14T22:19:20.824Z,9.38
2023-08-14T22:22:33.194Z,11.32
2023-08-14T22:25:45.879Z,9.15
2023-08-14T22:28:58.364Z,9.43
2023-08-14T22:32:10.985Z,9.88
2023-08-14T22:35:23.382Z,9.68
2023-08-14T22:38:36.129Z,8.93
2023-08-14T22:41:48.537Z,11.68
2023-08-14T22:45:01.566Z,11.65
2023-08-14T22:48:13.940Z,10.48
2023-08-14T22:51:27.124Z,14.50
2023-08-14T22:54:39.500Z,9.68
2023-08-14T22:57:55.877Z,15.77
2023-08-14T23:01:08.326Z,10.38
2023-08-14T23:04:21.338Z,9.45
2023-08-14T23:07:33.924Z,9.82
2023-08-14T23:10:46.737Z,10.52
2023-08-14T23:13:59.160Z,10.93
2023-08-14T23:17:11.790Z,11.75
2023-08-14T23:20:24.223Z,11.40
2023-08-14T23:23:36.868Z,9.57
2023-08-14T23:26:49.295Z,10.35
2023-08-14T23:30:01.911Z,8.77
2023-08-14T23:33:14.280Z,14.80
2023-08-14T23:36:26.935Z,17.42
2023-08-14T23:39:39.310Z,10.63
2023-08-14T23:42:51.980Z,11.23
2023-08-14T23:46:04.422Z,9.60
2023-08-14T23:49:17.104Z,10.75
2023-08-14T23:52:29.569Z,9.20
2023-08-14T23:55:45.971Z,10.02
2023-08-14T23:58:58.417Z,8.75
